Time;durP1;ratioP1;P1;durP2;ratioP2;P2;SDS_P1;SDS_P2;PMS_P1;PMS_P2;Temp;Humidity;BMP_temperature;BMP_pressure;BME280_temperature;BME280_humidity;BME280_pressure;Samples;Min_cycle;Max_cycle;Signal;HPM_P1;HPM_P2
2023/05/08 00:01:17;;;;;;;0.40;0.40;;;13.70;99.90;;;;;;5111089;28;20187;-73
2023/05/08 00:03:48;;;;;;;0.95;0.40;;;13.80;99.90;;;;;;5110977;28;20690;-74
2023/05/08 00:06:19;;;;;;;0.20;0.20;;;13.90;99.90;;;;;;5113467;28;20278;-74
2023/05/08 00:08:50;;;;;;;0.77;0.40;;;14.10;99.90;;;;;;5102672;28;20245;-74
2023/05/08 00:11:21;;;;;;;0.90;0.60;;;14.20;99.90;;;;;;5098627;27;20196;-75
2023/05/08 00:13:55;;;;;;;0.60;0.57;;;14.20;99.90;;;;;;5110844;28;20220;-74
2023/05/08 00:16:26;;;;;;;0.30;0.30;;;14.40;99.90;;;;;;5104340;28;20195;-73
2023/05/08 00:18:57;;;;;;;2.35;0.55;;;14.50;99.90;;;;;;5095330;28;20196;-73
2023/05/08 00:21:28;;;;;;;0.55;0.50;;;14.40;99.90;;;;;;5094117;28;20189;-76
2023/05/08 00:23:59;;;;;;;1.30;0.30;;;14.50;99.90;;;;;;5093942;28;20216;-73
2023/05/08 00:26:31;;;;;;;1.35;0.47;;;14.70;99.90;;;;;;5093842;28;20191;-75
2023/05/08 00:29:05;;;;;;;1.58;0.40;;;14.70;99.90;;;;;;5093939;28;20188;-74
2023/05/08 00:31:36;;;;;;;0.80;0.40;;;14.80;99.90;;;;;;5093825;28;20196;-75
2023/05/08 00:34:07;;;;;;;2.13;0.40;;;14.80;99.90;;;;;;5093688;28;20195;-74
2023/05/08 00:36:38;;;;;;;0.35;0.20;;;14.80;99.90;;;;;;5092903;28;20666;-75
2023/05/08 00:39:10;;;;;;;1.02;0.40;;;14.90;99.90;;;;;;5093611;28;20203;-75
2023/05/08 00:41:41;;;;;;;0.20;0.20;;;15.10;99.90;;;;;;5093273;28;20185;-75
2023/05/08 00:44:14;;;;;;;1.27;0.22;;;15.20;99.90;;;;;;5094565;28;20234;-73
2023/05/08 00:46:46;;;;;;;0.73;0.40;;;15.20;99.90;;;;;;5093261;28;20188;-75
2023/05/08 00:49:17;;;;;;;0.68;0.40;;;15.20;99.90;;;;;;5112644;28;20252;-75
2023/05/08 00:51:50;;;;;;;1.25;0.30;;;15.10;99.90;;;;;;5114061;28;20211;-76
2023/05/08 00:54:22;;;;;;;0.85;0.63;;;15.10;99.90;;;;;;5113838;28;20187;-74
2023/05/08 00:56:54;;;;;;;0.70;0.30;;;15.10;99.90;;;;;;5113613;28;20191;-75
2023/05/08 00:59:28;;;;;;;0.80;0.30;;;15.10;99.90;;;;;;5113933;28;20595;-75
2023/05/08 01:01:59;;;;;;;0.63;0.30;;;15.20;99.90;;;;;;5113855;28;20206;-74
2023/05/08 01:04:31;;;;;;;1.25;0.40;;;15.20;99.90;;;;;;5111495;28;20229;-75
2023/05/08 01:07:03;;;;;;;1.75;0.47;;;15.30;99.90;;;;;;5102251;28;20197;-75
2023/05/08 01:09:34;;;;;;;2.17;0.40;;;15.30;99.90;;;;;;5114070;28;20194;-76
2023/05/08 01:12:17;;;;;;;1.55;0.45;;;15.40;99.90;;;;;;5113560;28;20713;-77
2023/05/08 01:15:10;;;;;;;1.52;0.50;;;15.50;99.90;;;;;;5113903;28;20199;-75
2023/05/08 01:17:56;;;;;;;1.52;0.50;;;15.70;99.90;;;;;;5113659;28;20199;-75
2023/05/08 01:20:37;;;;;;;2.28;0.55;;;15.90;99.90;;;;;;5113532;28;20194;-76
2023/05/08 01:23:53;;;;;;;2.22;0.50;;;16.00;99.90;;;;;;5113512;28;20640;-75
2023/05/08 01:26:47;;;;;;;3.75;0.65;;;15.70;99.90;;;;;;5103997;28;20202;-76
2023/05/08 01:29:55;;;;;;;0.70;0.22;;;15.50;99.90;;;;;;5111289;28;20213;-75
2023/05/08 01:32:29;;;;;;;0.60;0.32;;;15.40;99.90;;;;;;5088291;28;20199;-74
2023/05/08 01:35:09;;;;;;;0.70;0.30;;;15.40;99.90;;;;;;5113502;28;20199;-74
2023/05/08 01:37:48;;;;;;;2.63;0.30;;;15.50;99.90;;;;;;5113355;28;20192;-74
2023/05/08 01:40:30;;;;;;;0.60;0.50;;;15.50;99.90;;;;;;5113586;28;20207;-75
2023/05/08 01:43:12;;;;;;;0.90;0.40;;;15.40;99.90;;;;;;5113379;28;20644;-75
2023/05/08 01:45:47;;;;;;;0.50;0.30;;;15.50;99.90;;;;;;5110099;28;20199;-75
2023/05/08 01:48:30;;;;;;;1.58;0.50;;;15.60;99.90;;;;;;5113327;28;20190;-76
2023/05/08 01:51:06;;;;;;;0.88;0.50;;;15.50;99.90;;;;;;5113410;28;20184;-75
2023/05/08 01:53:41;;;;;;;0.63;0.40;;;15.70;99.90;;;;;;5116500;28;20239;-73
2023/05/08 01:56:17;;;;;;;1.65;0.40;;;16.00;99.90;;;;;;5117254;27;20183;-74
2023/05/08 01:58:49;;;;;;;2.00;0.40;;;16.10;99.90;;;;;;5115859;28;20187;-75
2023/05/08 02:01:25;;;;;;;1.00;0.30;;;16.20;99.90;;;;;;5112416;27;20203;-75
2023/05/08 02:03:59;;;;;;;1.42;0.30;;;16.20;99.90;;;;;;5116419;28;20211;-74
2023/05/08 02:06:32;;;;;;;0.30;0.30;;;16.30;99.90;;;;;;5109641;28;20227;-74
2023/05/08 02:09:04;;;;;;;3.08;0.40;;;16.30;99.90;;;;;;5103550;27;20194;-74
2023/05/08 02:11:37;;;;;;;1.85;0.45;;;16.10;99.90;;;;;;5115972;27;20202;-75
2023/05/08 02:14:10;;;;;;;1.95;0.90;;;15.90;99.90;;;;;;5116460;28;20212;-74
2023/05/08 02:16:43;;;;;;;2.20;0.52;;;15.80;99.90;;;;;;5115706;28;20200;-74
2023/05/08 02:19:18;;;;;;;0.43;0.38;;;15.80;99.90;;;;;;5109969;28;20192;-74
2023/05/08 02:21:51;;;;;;;1.55;0.50;;;15.80;99.90;;;;;;5114963;28;20199;-74
2023/05/08 02:24:23;;;;;;;2.42;0.75;;;15.90;99.90;;;;;;5104097;28;20227;-74
2023/05/08 02:26:57;;;;;;;1.70;0.60;;;15.90;99.90;;;;;;5116359;28;20200;-75
2023/05/08 02:29:29;;;;;;;1.02;0.45;;;16.00;99.90;;;;;;5113547;28;20207;-74
2023/05/08 02:32:02;;;;;;;0.88;0.45;;;16.10;99.90;;;;;;5113171;28;20671;-75
2023/05/08 02:34:36;;;;;;;1.55;0.40;;;16.10;99.90;;;;;;5116180;28;20195;-74
2023/05/08 02:37:08;;;;;;;0.60;0.40;;;16.20;99.90;;;;;;5116075;28;20195;-75
2023/05/08 02:39:41;;;;;;;1.50;0.50;;;16.30;99.90;;;;;;5115378;28;20730;-74
2023/05/08 02:42:12;;;;;;;0.50;0.22;;;16.30;99.90;;;;;;5116414;28;20199;-74
2023/05/08 02:44:43;;;;;;;1.95;0.60;;;16.30;99.90;;;;;;5115873;28;20240;-74
2023/05/08 02:47:21;;;;;;;1.58;0.50;;;16.20;99.90;;;;;;5110588;28;20544;-76
2023/05/08 02:49:58;;;;;;;1.17;0.32;;;16.20;99.90;;;;;;5112320;28;20199;-77
2023/05/08 02:52:33;;;;;;;0.70;0.40;;;16.20;99.90;;;;;;5115206;28;20710;-75
2023/05/08 02:55:12;;;;;;;0.80;0.30;;;16.10;99.90;;;;;;5114341;28;20199;-74
2023/05/08 02:57:58;;;;;;;0.60;0.30;;;16.00;99.90;;;;;;5112725;28;20199;-75
2023/05/08 03:00:34;;;;;;;0.57;0.32;;;16.00;99.90;;;;;;5113030;28;20195;-75
2023/05/08 03:03:09;;;;;;;1.30;0.30;;;16.00;99.90;;;;;;5108108;28;20202;-75
2023/05/08 03:05:49;;;;;;;1.27;0.38;;;15.90;99.90;;;;;;5101796;28;20234;-74
2023/05/08 03:08:29;;;;;;;0.47;0.20;;;15.90;99.90;;;;;;5114451;28;20213;-75
2023/05/08 03:11:04;;;;;;;0.60;0.30;;;15.90;99.90;;;;;;5114649;28;20199;-74
2023/05/08 03:13:39;;;;;;;0.85;0.30;;;15.90;99.90;;;;;;5114813;27;20225;-75
2023/05/08 03:16:19;;;;;;;1.13;0.20;;;15.90;99.90;;;;;;5095514;28;20202;-75
2023/05/08 03:18:58;;;;;;;1.08;0.40;;;15.90;99.90;;;;;;5096173;28;20196;-75
2023/05/08 03:21:32;;;;;;;0.50;0.45;;;15.90;99.90;;;;;;5105547;28;20203;-75
2023/05/08 03:24:06;;;;;;;3.30;0.43;;;15.90;99.90;;;;;;5095943;28;20212;-74
2023/05/08 03:26:38;;;;;;;0.65;0.30;;;15.90;99.90;;;;;;5095081;28;20211;-76
2023/05/08 03:29:10;;;;;;;0.50;0.38;;;16.00;99.90;;;;;;5098408;28;20196;-76
2023/05/08 03:31:43;;;;;;;1.10;0.47;;;16.10;99.90;;;;;;5094924;28;20245;-77
2023/05/08 03:34:18;;;;;;;0.40;0.25;;;16.10;99.90;;;;;;5111124;28;20199;-74
2023/05/08 03:36:53;;;;;;;0.85;0.40;;;16.20;99.90;;;;;;5115001;28;20191;-75
2023/05/08 03:39:24;;;;;;;3.83;0.45;;;16.20;99.90;;;;;;5103751;28;20191;-75
2023/05/08 03:41:57;;;;;;;1.15;0.38;;;16.20;99.90;;;;;;5114403;28;20198;-75
2023/05/08 03:44:30;;;;;;;1.83;0.40;;;16.30;99.90;;;;;;5115839;28;20216;-75
2023/05/08 03:47:01;;;;;;;2.22;0.40;;;16.30;99.90;;;;;;5109273;28;20571;-74
2023/05/08 03:49:33;;;;;;;0.75;0.20;;;16.30;99.90;;;;;;5110519;28;20202;-74
2023/05/08 03:52:07;;;;;;;0.32;0.20;;;16.30;99.90;;;;;;5114727;28;20238;-75
2023/05/08 03:54:38;;;;;;;1.27;0.40;;;16.30;99.90;;;;;;5114802;27;20658;-75
2023/05/08 03:57:09;;;;;;;1.05;0.32;;;16.40;99.90;;;;;;5114660;28;20658;-75
2023/05/08 04:00:02;;;;;;;0.47;0.28;;;16.40;99.90;;;;;;5112399;28;20191;-74
2023/05/08 04:02:38;;;;;;;0.82;0.30;;;16.40;99.90;;;;;;5094899;28;20235;-76
2023/05/08 04:05:19;;;;;;;0.30;0.30;;;16.40;99.90;;;;;;5109061;28;20211;-75
2023/05/08 04:08:04;;;;;;;0.63;0.20;;;16.40;99.90;;;;;;5095607;28;20709;-75
2023/05/08 04:10:39;;;;;;;1.38;0.43;;;16.30;99.90;;;;;;5095880;28;20188;-75
2023/05/08 04:13:13;;;;;;;2.70;0.40;;;16.30;99.90;;;;;;5094420;28;20223;-75
2023/05/08 04:15:51;;;;;;;0.55;0.30;;;16.30;99.90;;;;;;5101204;28;20187;-75
2023/05/08 04:18:27;;;;;;;0.65;0.20;;;16.20;99.90;;;;;;5107843;28;20309;-75
2023/05/08 04:21:01;;;;;;;0.50;0.20;;;16.20;99.90;;;;;;5112219;28;20199;-76
2023/05/08 04:23:35;;;;;;;0.38;0.30;;;16.20;99.90;;;;;;5113854;28;20251;-75
2023/05/08 04:26:09;;;;;;;0.75;0.40;;;16.20;99.90;;;;;;5097821;28;20219;-76
2023/05/08 04:28:41;;;;;;;1.75;0.38;;;16.20;99.90;;;;;;5108783;28;20671;-75
2023/05/08 04:31:13;;;;;;;0.45;0.22;;;16.20;99.90;;;;;;5104409;28;20202;-76
2023/05/08 04:33:46;;;;;;;1.75;0.40;;;16.20;99.90;;;;;;5113780;28;20191;-76
2023/05/08 04:36:17;;;;;;;2.53;0.38;;;16.20;99.90;;;;;;5114188;28;20213;-75
2023/05/08 04:38:50;;;;;;;0.32;0.30;;;16.10;99.90;;;;;;5113347;28;20200;-76
2023/05/08 04:41:21;;;;;;;1.65;0.40;;;16.10;99.90;;;;;;5113745;28;20192;-76
2023/05/08 04:43:53;;;;;;;0.98;0.30;;;16.10;99.90;;;;;;5111456;28;20202;-76
2023/05/08 04:46:24;;;;;;;1.48;0.30;;;16.20;99.90;;;;;;5105870;28;20211;-76
2023/05/08 04:48:55;;;;;;;0.20;0.20;;;16.10;99.90;;;;;;5110464;28;20204;-75
2023/05/08 04:51:26;;;;;;;0.70;0.40;;;16.10;99.90;;;;;;5107083;28;20594;-76
2023/05/08 04:53:59;;;;;;;0.80;0.20;;;16.10;99.90;;;;;;5113602;28;20223;-76
2023/05/08 04:56:30;;;;;;;0.68;0.30;;;16.10;99.90;;;;;;5114093;28;20203;-75
2023/05/08 04:59:01;;;;;;;2.50;0.40;;;16.00;99.90;;;;;;5114143;28;20655;-75
2023/05/08 05:01:33;;;;;;;0.55;0.30;;;16.00;99.90;;;;;;5113788;28;20192;-76
2023/05/08 05:04:04;;;;;;;1.10;0.40;;;15.90;99.90;;;;;;5110388;28;20203;-75
2023/05/08 05:06:35;;;;;;;1.15;0.30;;;15.90;99.90;;;;;;5104234;28;20219;-76
2023/05/08 05:09:08;;;;;;;0.88;0.25;;;15.90;99.90;;;;;;5093352;28;20188;-76
2023/05/08 05:11:39;;;;;;;2.63;0.32;;;15.90;99.90;;;;;;5097538;28;20694;-77
2023/05/08 05:14:10;;;;;;;2.00;0.35;;;15.80;99.90;;;;;;5100987;28;20191;-76
2023/05/08 05:16:41;;;;;;;0.60;0.20;;;15.80;99.90;;;;;;5092650;28;20196;-76
2023/05/08 05:19:12;;;;;;;0.40;0.30;;;15.80;99.90;;;;;;5098293;28;20191;-76
2023/05/08 05:21:44;;;;;;;0.35;0.35;;;15.80;99.90;;;;;;5112796;28;20194;-76
2023/05/08 05:24:17;;;;;;;0.32;0.28;;;15.80;99.90;;;;;;5111357;28;21892;-76
2023/05/08 05:26:48;;;;;;;0.82;0.30;;;15.80;99.90;;;;;;5095456;28;20188;-77
2023/05/08 05:29:19;;;;;;;1.00;0.50;;;15.80;99.90;;;;;;5097348;28;20192;-76
2023/05/08 05:31:50;;;;;;;1.75;0.40;;;15.70;99.90;;;;;;5105186;22;20236;-78
2023/05/08 05:34:21;;;;;;;0.77;0.40;;;15.80;99.90;;;;;;5056870;28;20663;-77
2023/05/08 05:36:52;;;;;;;0.20;0.20;;;15.80;99.90;;;;;;5056994;28;20186;-76
2023/05/08 05:39:25;;;;;;;1.23;0.30;;;15.70;99.90;;;;;;5039039;28;20194;-76
2023/05/08 05:41:56;;;;;;;0.30;0.30;;;15.70;99.90;;;;;;5037028;28;20568;-77
2023/05/08 05:44:27;;;;;;;0.40;0.30;;;15.70;99.90;;;;;;5036241;28;20190;-77
2023/05/08 05:46:58;;;;;;;1.75;0.30;;;15.70;99.90;;;;;;5036075;28;20192;-77
2023/05/08 05:49:29;;;;;;;0.40;0.30;;;15.70;99.90;;;;;;5036894;28;20197;-77
2023/05/08 05:52:00;;;;;;;0.75;0.40;;;15.70;99.90;;;;;;5036790;28;20198;-76
2023/05/08 05:54:33;;;;;;;1.13;0.40;;;15.60;99.90;;;;;;5036789;28;20198;-77
2023/05/08 05:57:04;;;;;;;0.70;0.30;;;15.70;99.90;;;;;;5036731;28;20194;-76
2023/05/08 05:59:36;;;;;;;1.80;0.40;;;15.70;99.90;;;;;;5036682;28;20672;-77
2023/05/08 06:02:09;;;;;;;2.03;0.38;;;15.70;99.90;;;;;;5036518;28;20298;-77
2023/05/08 06:04:40;;;;;;;1.25;0.50;;;15.70;99.90;;;;;;5052357;28;20190;-76
2023/05/08 06:07:11;;;;;;;1.55;0.40;;;15.70;99.90;;;;;;5055763;28;20652;-76
2023/05/08 06:09:44;;;;;;;0.60;0.40;;;15.70;99.90;;;;;;5055749;28;20202;-77
2023/05/08 06:12:15;;;;;;;1.42;0.50;;;15.70;99.90;;;;;;5055745;28;20201;-77
2023/05/08 06:14:46;;;;;;;2.20;0.52;;;15.70;99.90;;;;;;5054183;28;20193;-76
2023/05/08 06:17:17;;;;;;;2.33;0.55;;;15.70;99.90;;;;;;5054149;28;20196;-76
2023/05/08 06:19:49;;;;;;;1.88;0.50;;;15.70;99.90;;;;;;5040954;28;20201;-76
2023/05/08 06:22:22;;;;;;;2.53;0.55;;;15.70;99.90;;;;;;5054510;28;20233;-77
2023/05/08 06:24:56;;;;;;;0.82;0.40;;;15.70;99.90;;;;;;5054844;28;20209;-77
2023/05/08 06:27:27;;;;;;;1.63;0.47;;;15.70;99.90;;;;;;5048445;28;20660;-76
2023/05/08 06:29:58;;;;;;;1.15;0.40;;;15.70;99.90;;;;;;5050806;28;20193;-77
2023/05/08 06:32:29;;;;;;;3.33;0.55;;;15.70;99.90;;;;;;5033015;28;20233;-77
2023/05/08 06:35:00;;;;;;;0.43;0.30;;;15.70;99.90;;;;;;5035347;28;20202;-78
2023/05/08 06:37:32;;;;;;;0.90;0.50;;;15.60;99.90;;;;;;5029442;28;20198;-77
2023/05/08 06:40:05;;;;;;;1.75;0.52;;;15.60;99.90;;;;;;5031928;28;20198;-77
2023/05/08 06:42:36;;;;;;;2.55;0.57;;;15.60;99.90;;;;;;5031423;28;21364;-77
2023/05/08 06:45:08;;;;;;;1.08;0.70;;;15.60;99.90;;;;;;5026023;28;20214;-77
2023/05/08 06:47:39;;;;;;;1.52;0.60;;;15.70;99.90;;;;;;5031475;28;20198;-76
2023/05/08 06:50:11;;;;;;;3.22;0.88;;;15.60;99.90;;;;;;5026221;28;20194;-76
2023/05/08 06:52:42;;;;;;;4.28;0.70;;;15.60;99.90;;;;;;5027671;28;20199;-76
2023/05/08 06:55:15;;;;;;;2.15;0.52;;;15.70;99.90;;;;;;5038135;28;20206;-75
2023/05/08 06:57:46;;;;;;;2.67;0.50;;;15.70;99.90;;;;;;5033240;28;20201;-77
2023/05/08 07:00:18;;;;;;;1.83;0.52;;;15.70;99.90;;;;;;5032198;28;20208;-76
2023/05/08 07:02:49;;;;;;;2.97;0.70;;;15.70;99.90;;;;;;5027263;28;20202;-77
2023/05/08 07:05:20;;;;;;;0.93;0.50;;;15.70;99.90;;;;;;5030155;28;20240;-78
2023/05/08 07:07:52;;;;;;;0.93;0.50;;;15.60;99.90;;;;;;5027119;28;20262;-78
2023/05/08 07:10:26;;;;;;;1.40;0.40;;;15.60;99.90;;;;;;5034541;28;20206;-78
2023/05/08 07:12:57;;;;;;;1.50;0.40;;;15.60;99.90;;;;;;5033221;28;20209;-77
2023/05/08 07:15:28;;;;;;;1.45;0.50;;;15.60;99.90;;;;;;5031765;28;20566;-76
2023/05/08 07:17:59;;;;;;;0.85;0.50;;;15.60;99.90;;;;;;5032811;28;20198;-78
2023/05/08 07:20:30;;;;;;;1.55;0.60;;;15.70;99.90;;;;;;5028982;28;20260;-77
2023/05/08 07:23:02;;;;;;;2.75;0.50;;;15.60;99.90;;;;;;5027431;28;20195;-76
2023/05/08 07:25:35;;;;;;;1.38;0.55;;;15.60;99.90;;;;;;5029085;28;20221;-76
2023/05/08 07:28:06;;;;;;;2.20;0.47;;;15.60;99.90;;;;;;5030386;28;20244;-76
2023/05/08 07:30:38;;;;;;;0.60;0.40;;;15.50;99.90;;;;;;5033043;28;20194;-76
2023/05/08 07:33:09;;;;;;;2.70;0.60;;;15.50;99.90;;;;;;5032205;28;20267;-78
2023/05/08 07:35:42;;;;;;;2.47;0.50;;;15.40;99.90;;;;;;5030323;28;20205;-77
2023/05/08 07:38:13;;;;;;;0.88;0.60;;;15.40;99.90;;;;;;5027708;28;20198;-77
2023/05/08 07:40:47;;;;;;;0.85;0.40;;;15.30;99.90;;;;;;5031479;28;20194;-76
2023/05/08 07:43:18;;;;;;;1.75;0.57;;;15.30;99.90;;;;;;5028995;28;20652;-77
2023/05/08 07:45:50;;;;;;;1.23;0.43;;;15.30;99.90;;;;;;5033575;28;20245;-77
2023/05/08 07:48:21;;;;;;;3.13;0.60;;;15.20;99.90;;;;;;5033788;28;20212;-77
2023/05/08 07:50:53;;;;;;;1.95;0.50;;;15.30;99.90;;;;;;5032544;28;20210;-77
2023/05/08 07:53:24;;;;;;;2.63;0.70;;;15.30;99.90;;;;;;5033504;28;20205;-77
2023/05/08 07:55:57;;;;;;;1.23;0.50;;;15.20;99.90;;;;;;5034450;28;20196;-77
2023/05/08 07:58:28;;;;;;;1.35;0.63;;;15.30;99.90;;;;;;5032486;28;20205;-76
2023/05/08 08:01:00;;;;;;;1.08;0.70;;;15.20;99.90;;;;;;5034077;28;20216;-75
2023/05/08 08:03:31;;;;;;;2.42;0.80;;;15.20;99.90;;;;;;5034083;28;20297;-76
2023/05/08 08:06:02;;;;;;;1.67;0.73;;;15.20;99.90;;;;;;5030139;28;20222;-77
2023/05/08 08:08:34;;;;;;;1.88;0.70;;;15.20;99.90;;;;;;5033906;28;20198;-76
2023/05/08 08:11:07;;;;;;;2.83;0.90;;;15.20;99.90;;;;;;5032858;28;20277;-75
2023/05/08 08:13:38;;;;;;;1.38;0.70;;;15.20;99.90;;;;;;5025989;28;20205;-76
2023/05/08 08:16:09;;;;;;;4.22;0.70;;;15.10;99.90;;;;;;5032958;28;20200;-76
2023/05/08 08:18:41;;;;;;;3.10;0.75;;;15.10;99.90;;;;;;5033767;28;20598;-77
2023/05/08 08:21:12;;;;;;;3.15;0.80;;;15.10;99.90;;;;;;5032987;28;20198;-76
2023/05/08 08:23:43;;;;;;;1.63;0.80;;;15.10;99.90;;;;;;5032486;28;20194;-77
2023/05/08 08:26:16;;;;;;;1.90;0.90;;;15.00;99.90;;;;;;5033313;28;20226;-77
2023/05/08 08:28:47;;;;;;;2.65;0.80;;;15.00;99.90;;;;;;5031943;28;20201;-76
2023/05/08 08:31:18;;;;;;;1.33;0.60;;;14.90;99.90;;;;;;5027828;28;20202;-76
2023/05/08 08:33:49;;;;;;;1.60;0.70;;;14.90;99.90;;;;;;5033229;28;20205;-77
2023/05/08 08:36:21;;;;;;;1.60;0.80;;;14.80;99.90;;;;;;5033064;28;20200;-77
2023/05/08 08:38:52;;;;;;;1.58;0.90;;;14.80;99.90;;;;;;5033446;28;20653;-77
2023/05/08 08:41:26;;;;;;;1.98;0.90;;;14.80;99.90;;;;;;5031755;28;20206;-78
2023/05/08 08:43:58;;;;;;;1.15;0.80;;;14.80;99.90;;;;;;5032652;28;20212;-77
2023/05/08 08:46:30;;;;;;;1.90;0.90;;;14.70;99.90;;;;;;5033503;28;20681;-76
2023/05/08 08:49:05;;;;;;;1.70;1.10;;;14.60;99.90;;;;;;5032310;28;20197;-75
2023/05/08 08:51:38;;;;;;;2.85;0.90;;;14.60;99.90;;;;;;5033604;28;20633;-76
2023/05/08 08:54:13;;;;;;;0.98;0.75;;;14.50;99.90;;;;;;5031190;28;20194;-75
2023/05/08 08:56:50;;;;;;;3.08;1.10;;;14.50;99.90;;;;;;5031990;28;20233;-76
2023/05/08 08:59:22;;;;;;;2.28;0.90;;;14.50;99.90;;;;;;5032921;28;20696;-75
2023/05/08 09:01:56;;;;;;;1.80;0.90;;;14.40;99.90;;;;;;5032070;28;20194;-76
2023/05/08 09:04:30;;;;;;;3.40;0.98;;;14.40;99.90;;;;;;5020844;28;20552;-78
2023/05/08 09:07:04;;;;;;;1.73;1.20;;;14.30;99.90;;;;;;5033276;28;20309;-76
2023/05/08 09:09:36;;;;;;;2.58;1.50;;;14.30;99.90;;;;;;5023094;28;20609;-76
2023/05/08 09:12:10;;;;;;;1.77;1.38;;;14.30;99.90;;;;;;5020893;28;20329;-78
2023/05/08 09:14:41;;;;;;;1.40;1.13;;;14.30;99.90;;;;;;5030035;28;20197;-76
2023/05/08 09:17:13;;;;;;;1.70;1.30;;;14.20;99.90;;;;;;5028922;28;20201;-78
2023/05/08 09:19:44;;;;;;;1.48;1.10;;;14.20;99.90;;;;;;5030918;28;20285;-77
2023/05/08 09:22:16;;;;;;;3.65;1.30;;;14.20;99.90;;;;;;5032779;28;20194;-77
2023/05/08 09:25:02;;;;;;;3.00;1.20;;;14.20;99.90;;;;;;5027925;28;20538;-77
2023/05/08 09:27:35;;;;;;;3.75;1.20;;;14.20;99.90;;;;;;5029342;28;20240;-79
2023/05/08 09:30:07;;;;;;;1.42;1.10;;;14.20;99.90;;;;;;5031614;28;20217;-79
2023/05/08 09:32:40;;;;;;;1.58;1.15;;;14.20;99.90;;;;;;5031801;28;20696;-79
2023/05/08 09:35:12;;;;;;;5.50;1.10;;;14.10;99.90;;;;;;5031762;28;20248;-78
2023/05/08 09:37:45;;;;;;;3.33;1.02;;;14.10;99.90;;;;;;5030982;28;20204;-79
2023/05/08 09:40:20;;;;;;;2.05;1.10;;;14.10;99.90;;;;;;5031869;28;20198;-79
2023/05/08 09:42:53;;;;;;;0.82;0.82;;;14.00;99.90;;;;;;5031595;28;20194;-78
2023/05/08 09:45:37;;;;;;;1.75;1.05;;;14.00;99.90;;;;;;5030843;28;20198;-79
2023/05/08 09:48:09;;;;;;;2.60;0.90;;;14.00;99.90;;;;;;5032618;28;20218;-81
2023/05/08 09:50:40;;;;;;;2.65;0.90;;;14.00;99.90;;;;;;5033933;28;20229;-79
2023/05/08 09:53:11;;;;;;;1.55;0.70;;;14.00;99.90;;;;;;5031599;28;20208;-79
2023/05/08 09:55:59;;;;;;;0.95;0.80;;;14.00;99.90;;;;;;5033026;28;20204;-79
2023/05/08 09:58:41;;;;;;;0.90;0.75;;;14.00;99.90;;;;;;5031055;28;20249;-79
2023/05/08 10:01:31;;;;;;;1.83;0.70;;;13.90;99.90;;;;;;5028982;28;20202;-80
2023/05/08 10:04:02;;;;;;;1.02;0.90;;;14.00;99.90;;;;;;5026734;28;20208;-80
2023/05/08 10:06:36;;;;;;;2.92;0.70;;;14.00;99.90;;;;;;5022253;28;20265;-79
2023/05/08 10:09:12;;;;;;;2.92;0.90;;;14.00;99.90;;;;;;5032554;28;20209;-79
2023/05/08 10:11:46;;;;;;;1.70;0.80;;;13.90;99.90;;;;;;5032608;28;20671;-80
2023/05/08 10:14:19;;;;;;;1.10;0.80;;;14.00;99.90;;;;;;5034035;28;20205;-80
2023/05/08 10:16:52;;;;;;;1.20;0.80;;;14.00;99.90;;;;;;5036052;28;20200;-80
2023/05/08 10:19:27;;;;;;;1.80;0.80;;;14.00;99.90;;;;;;5033999;28;20560;-79
2023/05/08 10:22:00;;;;;;;1.25;0.70;;;14.00;99.90;;;;;;5033662;28;20200;-78
2023/05/08 10:24:35;;;;;;;1.48;0.75;;;13.90;99.90;;;;;;5035550;28;20665;-80
2023/05/08 10:27:11;;;;;;;2.15;0.70;;;13.90;99.90;;;;;;5034448;28;20234;-80
2023/05/08 10:29:54;;;;;;;0.98;0.70;;;13.90;99.90;;;;;;5033855;28;20209;-81
2023/05/08 10:32:27;;;;;;;0.73;0.60;;;13.80;99.90;;;;;;5032523;28;20253;-81
2023/05/08 10:35:01;;;;;;;0.90;0.70;;;13.80;99.90;;;;;;5031678;28;20198;-79
2023/05/08 10:37:35;;;;;;;2.55;0.60;;;13.70;99.90;;;;;;5024382;28;20653;-80
2023/05/08 10:40:07;;;;;;;0.65;0.65;;;13.70;99.90;;;;;;5033355;28;20202;-78
2023/05/08 10:42:39;;;;;;;2.38;0.90;;;13.60;99.90;;;;;;5033196;28;20636;-79
2023/05/08 10:45:13;;;;;;;1.40;0.70;;;13.60;99.90;;;;;;5031258;28;20224;-79
2023/05/08 10:48:01;;;;;;;0.80;0.70;;;13.60;99.90;;;;;;5033250;28;20218;-76
2023/05/08 10:50:44;;;;;;;1.38;0.70;;;13.60;99.90;;;;;;5032503;28;20233;-81
2023/05/08 10:53:20;;;;;;;1.10;0.77;;;13.60;99.90;;;;;;5035288;28;20206;-79
2023/05/08 10:55:54;;;;;;;1.17;0.70;;;13.50;99.90;;;;;;5023937;28;20190;-77
2023/05/08 10:58:34;;;;;;;0.63;0.57;;;13.50;99.90;;;;;;5015746;28;20297;-80
2023/05/08 11:01:28;;;;;;;1.23;0.75;;;13.50;99.90;;;;;;5014940;28;20221;-78
2023/05/08 11:03:59;;;;;;;2.45;0.73;;;13.40;99.90;;;;;;5022085;28;20673;-79
2023/05/08 11:06:47;;;;;;;1.80;0.60;;;13.30;99.90;;;;;;5034689;28;20306;-78
2023/05/08 11:09:23;;;;;;;1.90;0.70;;;13.40;99.90;;;;;;5032622;28;20216;-78
2023/05/08 11:12:09;;;;;;;0.60;0.60;;;13.40;99.90;;;;;;5035111;28;20202;-79
2023/05/08 11:14:43;;;;;;;0.63;0.63;;;13.40;99.90;;;;;;5035230;28;20200;-78
2023/05/08 11:17:24;;;;;;;1.40;0.73;;;13.30;99.90;;;;;;5034923;28;20200;-80
2023/05/08 11:20:02;;;;;;;1.15;0.68;;;13.30;99.90;;;;;;5034553;28;20190;-79
2023/05/08 11:22:34;;;;;;;0.80;0.80;;;13.30;99.90;;;;;;5034946;28;20190;-77
2023/05/08 11:25:10;;;;;;;0.95;0.70;;;13.20;99.90;;;;;;5027576;28;20217;-75
2023/05/08 11:28:14;;;;;;;0.50;0.50;;;13.20;99.90;;;;;;5034134;28;20210;-79
2023/05/08 11:30:47;;;;;;;1.00;0.70;;;13.10;99.90;;;;;;5034500;28;20188;-78
2023/05/08 11:33:21;;;;;;;1.35;0.70;;;13.10;99.90;;;;;;5034663;28;20692;-76
2023/05/08 11:35:57;;;;;;;0.70;0.70;;;13.00;99.90;;;;;;5034675;28;20195;-76
2023/05/08 11:38:33;;;;;;;0.93;0.63;;;13.00;99.90;;;;;;5024981;28;20205;-77
2023/05/08 11:41:06;;;;;;;1.20;0.70;;;12.90;99.90;;;;;;5034747;28;20222;-75
2023/05/08 11:44:13;;;;;;;1.77;0.80;;;12.80;99.90;;;;;;5034744;28;20290;-78
2023/05/08 11:46:45;;;;;;;1.10;0.80;;;12.80;99.90;;;;;;5034588;28;20221;-78
2023/05/08 11:49:20;;;;;;;1.10;0.80;;;12.80;99.90;;;;;;5034225;28;20195;-78
2023/05/08 11:51:53;;;;;;;1.83;1.10;;;12.70;99.90;;;;;;5034490;28;20190;-79
2023/05/08 11:54:26;;;;;;;1.58;0.90;;;12.70;99.90;;;;;;5034729;28;20241;-78
2023/05/08 11:56:58;;;;;;;2.10;0.98;;;12.60;99.90;;;;;;5034359;28;20201;-77
2023/05/08 11:59:29;;;;;;;2.10;0.95;;;12.60;99.90;;;;;;5034092;28;20225;-78
2023/05/08 12:02:00;;;;;;;1.55;0.90;;;12.50;99.90;;;;;;5034384;28;20197;-78
2023/05/08 12:04:33;;;;;;;1.65;0.98;;;12.60;99.90;;;;;;5031078;28;20198;-77
2023/05/08 12:07:05;;;;;;;2.40;1.00;;;12.50;99.90;;;;;;5033405;28;20214;-78
2023/05/08 12:09:37;;;;;;;1.00;0.95;;;12.40;99.90;;;;;;5026667;28;20629;-77
2023/05/08 12:12:08;;;;;;;1.73;1.00;;;12.40;99.90;;;;;;5028401;28;20197;-77
2023/05/08 12:14:39;;;;;;;1.10;0.90;;;12.40;99.90;;;;;;5033820;28;20190;-78
2023/05/08 12:17:12;;;;;;;1.33;1.13;;;12.40;99.90;;;;;;5032304;28;20212;-76
2023/05/08 12:19:45;;;;;;;3.80;1.27;;;12.30;99.90;;;;;;5031516;28;20207;-77
2023/05/08 12:22:16;;;;;;;2.65;1.15;;;12.20;99.90;;;;;;5032270;28;20203;-77
2023/05/08 12:24:47;;;;;;;2.13;1.23;;;12.20;99.90;;;;;;5034161;28;20190;-77
2023/05/08 12:27:18;;;;;;;1.55;1.30;;;12.10;99.90;;;;;;5034001;28;20213;-79
2023/05/08 12:29:49;;;;;;;1.55;1.10;;;12.10;99.90;;;;;;5033851;28;20672;-78
2023/05/08 12:32:20;;;;;;;1.30;1.00;;;12.00;99.90;;;;;;5030231;28;20261;-78
2023/05/08 12:34:54;;;;;;;4.18;1.10;;;12.00;99.90;;;;;;5033544;28;20198;-79
2023/05/08 12:37:30;;;;;;;1.33;1.10;;;12.00;99.90;;;;;;5032756;28;20553;-77
2023/05/08 12:40:01;;;;;;;1.00;0.93;;;12.00;99.90;;;;;;5030045;28;20198;-78
2023/05/08 12:42:49;;;;;;;0.82;0.80;;;12.00;99.90;;;;;;5034030;28;20634;-78
2023/05/08 12:45:21;;;;;;;2.40;1.00;;;12.00;99.90;;;;;;5033276;28;20197;-78
2023/05/08 12:47:55;;;;;;;2.13;1.10;;;11.90;99.90;;;;;;5032163;28;20222;-78
2023/05/08 12:50:31;;;;;;;1.52;1.20;;;11.90;99.90;;;;;;5030868;28;20201;-78
2023/05/08 12:53:06;;;;;;;2.03;1.20;;;11.90;99.90;;;;;;5025497;28;20201;-79
2023/05/08 12:55:38;;;;;;;2.30;1.20;;;11.90;99.90;;;;;;5028065;28;20187;-78
2023/05/08 12:58:13;;;;;;;1.08;1.00;;;11.90;99.90;;;;;;5030987;28;20201;-78
2023/05/08 13:00:46;;;;;;;1.90;1.00;;;11.80;99.90;;;;;;5026273;28;20285;-76
2023/05/08 13:03:24;;;;;;;1.67;0.90;;;11.80;99.90;;;;;;5027867;28;20204;-77
2023/05/08 13:05:58;;;;;;;1.20;1.10;;;11.80;99.90;;;;;;5024003;28;21274;-79
2023/05/08 13:08:34;;;;;;;1.10;1.00;;;11.80;99.90;;;;;;5028032;28;20259;-79
2023/05/08 13:11:06;;;;;;;4.43;1.40;;;11.70;99.90;;;;;;5026555;28;20209;-77
2023/05/08 13:13:38;;;;;;;2.25;1.05;;;11.70;99.90;;;;;;5025069;28;20190;-77
2023/05/08 13:16:10;;;;;;;1.27;1.17;;;11.70;99.90;;;;;;5029975;28;20256;-78
2023/05/08 13:18:41;;;;;;;2.00;1.13;;;11.60;99.90;;;;;;5023160;28;20198;-78
2023/05/08 13:21:14;;;;;;;2.50;1.15;;;11.60;99.90;;;;;;5023300;28;20200;-78
2023/05/08 13:23:45;;;;;;;1.17;1.00;;;11.60;99.90;;;;;;5026596;28;20198;-76